createdAt,value
2018-07-24T00:00:21.315Z,21.50
2018-07-24T00:02:48.929Z,21.50
2018-07-24T00:05:16.535Z,21.50
2018-07-24T00:07:44.162Z,21.50
2018-07-24T00:10:13.595Z,21.50
2018-07-24T00:12:41.247Z,21.50
2018-07-24T00:15:09.039Z,21.50
2018-07-24T00:17:36.699Z,21.50
2018-07-24T00:20:05.416Z,21.50
2018-07-24T00:22:33.065Z,21.40
2018-07-24T00:25:00.686Z,21.40
2018-07-24T00:27:28.331Z,21.40
2018-07-24T00:29:56.033Z,21.30
2018-07-24T00:32:23.646Z,21.30
2018-07-24T00:34:51.281Z,21.30
2018-07-24T00:37:18.923Z,21.30
2018-07-24T00:39:46.545Z,21.30
2018-07-24T00:42:14.167Z,21.30
2018-07-24T00:44:41.765Z,21.30
2018-07-24T00:47:09.587Z,21.30
2018-07-24T00:49:37.225Z,21.30
2018-07-24T00:52:04.877Z,21.30
2018-07-24T00:54:32.500Z,21.30
2018-07-24T00:57:00.141Z,21.20
2018-07-24T00:59:27.756Z,21.20
2018-07-24T01:01:55.345Z,21.20
2018-07-24T01:04:22.967Z,21.20
2018-07-24T01:06:50.596Z,21.10
2018-07-24T01:09:18.205Z,21.10
2018-07-24T01:11:45.850Z,21.00
2018-07-24T01:14:13.475Z,21.00
2018-07-24T01:16:41.120Z,21.00
2018-07-24T01:19:08.736Z,21.00
2018-07-24T01:21:36.380Z,21.00
2018-07-24T01:24:03.999Z,21.00
2018-07-24T01:26:31.632Z,20.90
2018-07-24T01:28:59.234Z,20.90
2018-07-24T01:31:26.857Z,20.80
2018-07-24T01:33:54.485Z,20.80
2018-07-24T01:36:22.105Z,20.80
2018-07-24T01:38:49.721Z,20.80
2018-07-24T01:43:44.822Z,20.80
2018-07-24T01:46:12.428Z,20.80
2018-07-24T01:48:40.043Z,20.80
2018-07-24T01:51:07.629Z,20.80
2018-07-24T01:53:35.263Z,20.80
2018-07-24T01:56:02.860Z,20.70
2018-07-24T01:58:30.475Z,20.70
2018-07-24T02:01:01.967Z,20.70
2018-07-24T02:05:57.093Z,20.60
2018-07-24T02:08:24.734Z,20.60
2018-07-24T02:10:52.368Z,20.60
2018-07-24T02:13:20.070Z,20.60
2018-07-24T02:15:47.728Z,20.50
2018-07-24T02:18:15.356Z,20.50
2018-07-24T02:20:43.020Z,20.40
2018-07-24T02:23:10.733Z,20.40
2018-07-24T02:25:38.370Z,20.30
2018-07-24T02:30:33.670Z,20.30
2018-07-24T02:33:01.318Z,20.30
2018-07-24T02:35:28.949Z,20.20
2018-07-24T02:37:56.629Z,20.20
2018-07-24T02:40:24.287Z,20.10
2018-07-24T02:42:51.902Z,20.00
2018-07-24T02:45:19.531Z,19.90
2018-07-24T02:47:47.136Z,19.90
2018-07-24T02:50:14.770Z,19.80
2018-07-24T02:52:42.416Z,19.80
2018-07-24T02:55:10.069Z,19.70
2018-07-24T02:57:37.709Z,19.70
2018-07-24T03:00:05.392Z,19.60
2018-07-24T03:02:33.014Z,19.60
2018-07-24T03:05:00.709Z,19.60
2018-07-24T03:07:28.324Z,19.50
2018-07-24T03:09:55.991Z,19.50
2018-07-24T03:12:23.605Z,19.40
2018-07-24T03:14:51.242Z,19.40
2018-07-24T03:17:18.848Z,19.40
2018-07-24T03:19:46.532Z,19.40
2018-07-24T03:22:14.127Z,19.30
2018-07-24T03:24:41.921Z,19.30
2018-07-24T03:27:09.541Z,19.30
2018-07-24T03:29:37.170Z,19.30
2018-07-24T03:32:04.831Z,19.30
2018-07-24T03:34:32.417Z,19.30
2018-07-24T03:37:00.043Z,19.30
2018-07-24T03:39:27.701Z,19.40
2018-07-24T03:41:55.355Z,19.40
2018-07-24T03:50:21.519Z,19.50
2018-07-24T03:52:49.179Z,19.60
2018-07-24T03:55:16.796Z,19.50
2018-07-24T03:57:44.744Z,19.50
2018-07-24T04:00:12.391Z,19.50
2018-07-24T04:02:40.000Z,19.70
2018-07-24T04:05:07.731Z,19.70
2018-07-24T04:07:35.368Z,19.80
2018-07-24T04:10:03.089Z,19.80
2018-07-24T04:12:30.725Z,19.70
2018-07-24T04:14:58.355Z,19.70
2018-07-24T04:17:26.012Z,19.70
2018-07-24T04:19:53.620Z,19.60
2018-07-24T04:22:21.239Z,19.60
2018-07-24T04:24:48.864Z,19.60
2018-07-24T04:27:16.474Z,19.50
2018-07-24T04:29:44.093Z,19.50
2018-07-24T04:32:11.685Z,19.60
2018-07-24T04:34:39.393Z,19.70
2018-07-24T04:37:07.024Z,19.70
2018-07-24T04:39:34.673Z,19.80
2018-07-24T04:42:02.317Z,19.90
2018-07-24T04:44:29.908Z,20.00
2018-07-24T04:46:57.569Z,20.10
2018-07-24T04:49:25.163Z,20.10
2018-07-24T04:51:52.800Z,20.20
2018-07-24T04:54:20.405Z,20.30
2018-07-24T04:56:48.067Z,20.30
2018-07-24T04:59:15.701Z,20.40
2018-07-24T05:01:43.331Z,20.50
2018-07-24T05:04:10.972Z,20.50
2018-07-24T05:06:38.585Z,20.60
2018-07-24T05:09:09.414Z,20.70
2018-07-24T05:11:37.048Z,20.70
2018-07-24T05:14:05.412Z,20.70
2018-07-24T05:16:33.053Z,20.80
2018-07-24T05:19:00.678Z,20.80
2018-07-24T05:21:28.328Z,20.90
2018-07-24T05:23:55.969Z,20.90
2018-07-24T05:26:23.589Z,21.00
2018-07-24T05:28:51.224Z,21.10
2018-07-24T05:31:19.021Z,21.20
2018-07-24T05:33:46.692Z,21.30
2018-07-24T05:36:14.389Z,21.30
2018-07-24T05:38:42.153Z,21.40
2018-07-24T05:41:09.747Z,21.50
2018-07-24T05:43:37.424Z,21.60
2018-07-24T05:46:05.409Z,21.60
2018-07-24T05:48:33.067Z,21.70
2018-07-24T05:51:00.670Z,21.80
2018-07-24T05:53:28.314Z,21.80
2018-07-24T05:55:55.921Z,21.90
2018-07-24T05:58:23.551Z,22.00
2018-07-24T06:00:51.205Z,22.10
2018-07-24T06:03:18.850Z,22.20
2018-07-24T06:05:46.513Z,22.30
2018-07-24T06:08:14.167Z,22.40
2018-07-24T06:10:41.813Z,22.50
2018-07-24T06:13:09.488Z,22.50
2018-07-24T06:15:37.178Z,22.60
2018-07-24T06:18:05.438Z,22.70
2018-07-24T06:20:33.062Z,22.80
2018-07-24T06:23:00.699Z,22.90
2018-07-24T06:25:28.364Z,23.00
2018-07-24T06:27:56.300Z,23.10
2018-07-24T06:30:23.962Z,23.30
2018-07-24T06:32:51.631Z,23.40
2018-07-24T06:35:19.281Z,23.50
2018-07-24T06:37:46.908Z,23.60
2018-07-24T06:40:14.561Z,23.70
2018-07-24T06:42:42.193Z,23.80
2018-07-24T06:45:09.844Z,23.90
2018-07-24T06:47:37.482Z,24.00
2018-07-24T06:50:05.183Z,24.20
2018-07-24T06:52:32.925Z,24.20
2018-07-24T06:55:00.644Z,24.40
2018-07-24T06:57:28.288Z,24.60
2018-07-24T06:59:55.975Z,24.80
2018-07-24T07:02:23.612Z,24.90
2018-07-24T07:04:51.252Z,25.00
2018-07-24T07:07:18.919Z,25.10
2018-07-24T07:09:46.562Z,25.20
2018-07-24T07:12:14.209Z,25.30
2018-07-24T07:14:41.858Z,25.30
2018-07-24T07:17:11.669Z,25.40
2018-07-24T07:19:39.313Z,25.60
2018-07-24T07:22:07.679Z,25.70
2018-07-24T07:24:35.304Z,25.90
2018-07-24T07:27:02.952Z,26.00
2018-07-24T07:29:30.537Z,26.20
2018-07-24T07:31:58.899Z,26.30
2018-07-24T07:34:26.528Z,26.40
2018-07-24T07:36:54.144Z,26.70
2018-07-24T07:39:21.850Z,27.20
2018-07-24T07:41:49.438Z,28.10
2018-07-24T07:44:17.073Z,29.60
2018-07-24T07:46:44.841Z,31.40
2018-07-24T07:49:12.469Z,33.00
2018-07-24T07:51:40.091Z,34.50
2018-07-24T07:54:07.729Z,35.80
2018-07-24T07:56:35.440Z,36.50
2018-07-24T07:59:03.159Z,37.20
2018-07-24T08:01:30.851Z,37.90
2018-07-24T08:03:58.458Z,39.10
2018-07-24T08:06:26.105Z,40.00
2018-07-24T08:08:53.718Z,40.40
2018-07-24T08:11:21.396Z,40.50
2018-07-24T08:13:49.113Z,41.00
2018-07-24T08:16:16.785Z,41.30
2018-07-24T08:18:44.533Z,41.50
2018-07-24T08:21:12.203Z,41.80
2018-07-24T08:23:39.879Z,42.00
2018-07-24T08:26:07.537Z,42.80
2018-07-24T08:28:35.181Z,43.40
2018-07-24T08:31:02.826Z,43.80
2018-07-24T08:33:30.475Z,44.50
2018-07-24T08:35:58.152Z,44.50
2018-07-24T08:38:25.822Z,44.20
2018-07-24T08:40:53.500Z,43.70
2018-07-24T08:43:21.452Z,43.50
2018-07-24T08:45:49.062Z,43.30
2018-07-24T08:48:16.804Z,43.10
2018-07-24T08:50:44.696Z,43.00
2018-07-24T08:53:12.600Z,42.90
2018-07-24T08:55:40.392Z,43.20
2018-07-24T08:58:08.150Z,43.50
2018-07-24T09:00:35.989Z,43.90
2018-07-24T09:03:03.866Z,43.80
2018-07-24T09:05:31.750Z,43.80
2018-07-24T09:07:59.572Z,44.00
2018-07-24T09:10:27.395Z,44.10
2018-07-24T09:12:55.196Z,44.10
2018-07-24T09:15:23.046Z,44.70
2018-07-24T09:17:50.859Z,45.10
2018-07-24T09:20:18.763Z,44.00
2018-07-24T09:22:46.639Z,43.80
2018-07-24T09:25:14.447Z,43.80
2018-07-24T09:27:42.277Z,44.70
2018-07-24T09:30:10.209Z,45.40
2018-07-24T09:32:37.985Z,45.20
2018-07-24T09:35:05.811Z,45.30
2018-07-24T09:37:33.639Z,45.00
2018-07-24T09:40:01.580Z,44.70
2018-07-24T09:42:29.514Z,44.40
2018-07-24T09:44:57.411Z,44.30
2018-07-24T09:47:25.324Z,44.00
2018-07-24T09:49:53.243Z,43.30
2018-07-24T09:52:21.217Z,43.80
2018-07-24T09:54:49.022Z,44.30
2018-07-24T09:57:17.141Z,44.80
2018-07-24T09:59:45.167Z,45.30
2018-07-24T10:02:13.105Z,45.50
2018-07-24T10:04:40.921Z,45.20
2018-07-24T10:07:08.817Z,44.30
2018-07-24T10:09:36.589Z,44.30
2018-07-24T10:12:04.517Z,44.00
2018-07-24T10:14:32.260Z,43.80
2018-07-24T10:17:00.150Z,43.90
2018-07-24T10:19:28.008Z,44.10
2018-07-24T10:21:55.685Z,44.30
2018-07-24T10:24:23.357Z,44.10
2018-07-24T10:26:51.159Z,44.50
2018-07-24T10:29:18.773Z,44.40
2018-07-24T10:31:46.474Z,45.00
2018-07-24T10:34:14.138Z,44.40
2018-07-24T10:36:41.854Z,44.20
2018-07-24T10:39:10.737Z,44.40
2018-07-24T10:41:38.473Z,44.10
2018-07-24T10:44:06.201Z,43.80
2018-07-24T10:46:33.913Z,44.00
2018-07-24T10:49:01.556Z,44.30
2018-07-24T10:51:29.179Z,44.90
2018-07-24T10:53:56.820Z,44.50
2018-07-24T10:56:24.459Z,44.70
2018-07-24T10:58:52.143Z,45.20
2018-07-24T11:01:19.779Z,44.70
2018-07-24T11:03:47.500Z,45.10
2018-07-24T11:06:15.119Z,45.10
2018-07-24T11:08:42.775Z,44.70
2018-07-24T11:11:10.400Z,44.00
2018-07-24T11:13:38.059Z,43.30
2018-07-24T11:16:05.700Z,43.10
2018-07-24T11:18:33.344Z,43.10
2018-07-24T11:21:01.009Z,43.30
2018-07-24T11:23:28.632Z,43.20
2018-07-24T11:25:56.289Z,42.80
2018-07-24T11:28:24.026Z,42.80
2018-07-24T11:30:51.675Z,42.80
2018-07-24T11:33:19.315Z,43.30
2018-07-24T11:35:46.973Z,43.60
2018-07-24T11:38:14.740Z,43.10
2018-07-24T11:40:42.437Z,42.90
2018-07-24T11:43:10.097Z,42.70
2018-07-24T11:45:37.758Z,42.40
2018-07-24T11:48:05.444Z,42.00
2018-07-24T11:50:33.107Z,41.40
2018-07-24T11:53:00.817Z,41.00
2018-07-24T11:57:56.046Z,41.50
2018-07-24T12:00:23.675Z,41.40
2018-07-24T12:02:51.412Z,41.90
2018-07-24T12:05:19.076Z,42.50
2018-07-24T12:07:46.816Z,42.00
2018-07-24T12:10:14.493Z,41.70
2018-07-24T12:12:42.126Z,41.10
2018-07-24T12:15:09.828Z,40.90
2018-07-24T12:17:37.411Z,40.90
2018-07-24T12:20:05.281Z,40.90
2018-07-24T12:22:32.937Z,40.80
2018-07-24T12:25:00.597Z,40.00
2018-07-24T12:27:28.282Z,39.90
2018-07-24T12:29:56.005Z,39.50
2018-07-24T12:32:23.621Z,38.90
2018-07-24T12:34:51.270Z,38.50
2018-07-24T12:37:18.908Z,38.10
2018-07-24T12:39:46.702Z,37.50
2018-07-24T12:42:14.501Z,37.20
2018-07-24T12:44:42.211Z,36.80
2018-07-24T12:47:09.863Z,36.40
2018-07-24T12:49:37.522Z,35.80
2018-07-24T12:52:05.512Z,35.70
2018-07-24T12:54:33.123Z,35.30
2018-07-24T12:57:00.784Z,35.30
2018-07-24T12:59:28.397Z,35.20
2018-07-24T13:01:56.063Z,34.80
2018-07-24T13:04:23.750Z,34.80
2018-07-24T13:06:51.536Z,34.50
2018-07-24T13:09:19.179Z,34.40
2018-07-24T13:11:46.832Z,34.50
2018-07-24T13:14:14.488Z,34.70
2018-07-24T13:16:42.222Z,34.90
2018-07-24T13:19:09.905Z,35.20
2018-07-24T13:21:37.584Z,35.40
2018-07-24T13:24:05.287Z,35.80
2018-07-24T13:26:32.934Z,36.10
2018-07-24T13:29:00.546Z,36.10
2018-07-24T13:31:28.369Z,36.20
2018-07-24T13:33:56.038Z,36.50
2018-07-24T13:36:23.660Z,36.60
2018-07-24T13:38:51.363Z,36.70
2018-07-24T13:41:19.054Z,36.40
2018-07-24T13:43:46.780Z,36.50
2018-07-24T13:46:14.414Z,36.40
2018-07-24T13:48:45.851Z,36.50
2018-07-24T13:51:13.501Z,36.50
2018-07-24T13:53:41.178Z,36.40
2018-07-24T13:56:08.815Z,36.10
2018-07-24T13:58:36.524Z,36.10
2018-07-24T14:01:04.690Z,36.00
2018-07-24T14:03:32.368Z,36.20
2018-07-24T14:05:59.989Z,36.20
2018-07-24T14:08:27.757Z,36.50
2018-07-24T14:10:55.352Z,36.50
2018-07-24T14:13:23.029Z,36.50
2018-07-24T14:15:50.712Z,36.60
2018-07-24T14:18:18.393Z,36.50
2018-07-24T14:20:46.100Z,36.50
2018-07-24T14:23:13.770Z,36.60
2018-07-24T14:25:41.984Z,36.40
2018-07-24T14:28:10.713Z,36.20
2018-07-24T14:30:38.383Z,36.00
2018-07-24T14:33:06.036Z,36.20
2018-07-24T14:35:33.781Z,36.40
2018-07-24T14:38:01.422Z,36.50
2018-07-24T14:40:29.160Z,36.70
2018-07-24T14:42:57.424Z,36.90
2018-07-24T14:45:25.073Z,36.90
2018-07-24T14:47:52.745Z,36.90
2018-07-24T14:50:20.388Z,36.80
2018-07-24T14:52:48.105Z,36.80
2018-07-24T14:55:15.743Z,36.80
2018-07-24T15:00:10.997Z,36.50
2018-07-24T15:02:38.703Z,36.40
2018-07-24T15:05:06.736Z,36.30
2018-07-24T15:07:34.399Z,36.30
2018-07-24T15:10:02.053Z,36.30
2018-07-24T15:12:30.221Z,36.10
2018-07-24T15:14:58.153Z,35.90
2018-07-24T15:17:26.231Z,35.70
2018-07-24T15:19:54.125Z,35.40
2018-07-24T15:22:22.117Z,35.30
2018-07-24T15:24:50.088Z,35.10
2018-07-24T15:27:18.000Z,35.00
2018-07-24T15:29:45.916Z,34.90
2018-07-24T15:32:13.788Z,35.00
2018-07-24T15:34:41.900Z,35.10
2018-07-24T15:37:09.664Z,35.10
2018-07-24T15:39:37.500Z,35.10
2018-07-24T15:42:05.556Z,35.10
2018-07-24T15:44:33.412Z,35.00
2018-07-24T15:47:01.501Z,34.80
2018-07-24T15:49:29.279Z,34.70
2018-07-24T15:51:57.396Z,34.50
2018-07-24T15:56:53.056Z,34.40
2018-07-24T15:59:21.017Z,34.40
2018-07-24T16:01:48.936Z,34.40
2018-07-24T16:04:16.871Z,34.30
2018-07-24T16:06:44.786Z,34.20
2018-07-24T16:09:13.173Z,34.10
2018-07-24T16:11:41.050Z,34.10
2018-07-24T16:14:09.135Z,34.10
2018-07-24T16:16:36.981Z,34.10
2018-07-24T16:19:04.999Z,34.10
2018-07-24T16:21:32.898Z,33.90
2018-07-24T16:24:00.708Z,33.90
2018-07-24T16:26:28.811Z,33.80
2018-07-24T16:28:56.991Z,33.80
2018-07-24T16:31:24.887Z,33.90
2018-07-24T16:33:52.791Z,33.70
2018-07-24T16:36:20.773Z,33.70
2018-07-24T16:38:48.748Z,33.60
2018-07-24T16:41:16.735Z,33.60
2018-07-24T16:43:44.675Z,33.50
2018-07-24T16:46:12.599Z,33.50
2018-07-24T16:48:40.541Z,33.40
2018-07-24T16:51:08.479Z,33.40
2018-07-24T16:53:36.358Z,33.30
2018-07-24T16:56:04.365Z,33.20
2018-07-24T16:58:32.315Z,33.20
2018-07-24T17:01:00.314Z,33.20
2018-07-24T17:03:28.294Z,33.10
2018-07-24T17:05:56.129Z,33.00
2018-07-24T17:08:23.874Z,33.00
2018-07-24T17:13:19.105Z,32.90
2018-07-24T17:15:46.761Z,32.90
2018-07-24T17:18:14.516Z,32.90
2018-07-24T17:20:42.215Z,32.80
2018-07-24T17:23:09.926Z,32.80
2018-07-24T17:25:37.612Z,32.80
2018-07-24T17:28:08.606Z,32.70
2018-07-24T17:30:36.323Z,32.60
2018-07-24T17:33:04.099Z,32.40
2018-07-24T17:35:33.900Z,32.10
2018-07-24T17:38:01.517Z,31.90
2018-07-24T17:40:30.566Z,31.80
2018-07-24T17:42:58.240Z,31.60
2018-07-24T17:45:25.898Z,31.40
2018-07-24T17:47:54.605Z,31.30
2018-07-24T17:50:22.421Z,31.10
2018-07-24T17:52:50.203Z,31.00
2018-07-24T17:55:17.880Z,30.90
2018-07-24T17:57:45.572Z,30.90
2018-07-24T18:00:13.261Z,30.80
2018-07-24T18:02:42.322Z,30.70
2018-07-24T18:05:09.990Z,30.80
2018-07-24T18:07:37.721Z,30.90
2018-07-24T18:10:05.474Z,30.90
2018-07-24T18:12:33.069Z,31.00
2018-07-24T18:15:00.740Z,31.00
2018-07-24T18:17:28.377Z,31.00
2018-07-24T18:19:56.089Z,31.10
2018-07-24T18:22:23.813Z,31.10
2018-07-24T18:24:51.461Z,31.00
2018-07-24T18:27:19.124Z,30.90
2018-07-24T18:29:46.752Z,30.90
2018-07-24T18:32:14.420Z,30.80
2018-07-24T18:34:42.273Z,30.70
2018-07-24T18:37:10.048Z,30.70
2018-07-24T18:39:37.701Z,30.60
2018-07-24T18:42:05.372Z,30.50
2018-07-24T18:44:32.989Z,30.50
2018-07-24T18:47:00.783Z,30.50
2018-07-24T18:49:29.436Z,30.50
2018-07-24T18:51:57.159Z,30.40
2018-07-24T18:54:24.895Z,30.50
2018-07-24T18:56:53.747Z,30.30
2018-07-24T18:59:21.494Z,30.30
2018-07-24T19:01:49.412Z,30.10
2018-07-24T19:04:17.115Z,29.90
2018-07-24T19:06:44.893Z,29.90
2018-07-24T19:09:12.553Z,29.80
2018-07-24T19:11:40.333Z,29.70
2018-07-24T19:14:08.954Z,29.70
2018-07-24T19:16:36.604Z,29.50
2018-07-24T19:19:04.458Z,29.40
2018-07-24T19:21:32.144Z,29.30
2018-07-24T19:23:59.820Z,29.10
2018-07-24T19:26:27.471Z,29.00
2018-07-24T19:28:55.157Z,28.90
2018-07-24T19:31:22.992Z,28.70
2018-07-24T19:33:50.693Z,28.60
2018-07-24T19:36:18.358Z,28.50
2018-07-24T19:38:46.268Z,28.40
2018-07-24T19:41:13.930Z,28.30
2018-07-24T19:43:41.661Z,28.20
2018-07-24T19:46:09.296Z,28.10
2018-07-24T19:48:37.004Z,28.10
2018-07-24T19:53:32.204Z,27.90
2018-07-24T19:55:59.913Z,27.80
2018-07-24T19:58:27.546Z,27.70
2018-07-24T20:00:55.217Z,27.60
2018-07-24T20:03:22.926Z,27.60
2018-07-24T20:05:50.565Z,27.50
2018-07-24T20:08:18.308Z,27.40
2018-07-24T20:10:46.826Z,27.40
2018-07-24T20:13:14.472Z,27.40
2018-07-24T20:15:42.146Z,27.30
2018-07-24T20:18:09.813Z,27.30
2018-07-24T20:20:38.562Z,27.20
2018-07-24T20:23:06.304Z,27.20
2018-07-24T20:25:33.962Z,27.20
2018-07-24T20:28:01.638Z,27.10
2018-07-24T20:30:29.265Z,27.10
2018-07-24T20:32:56.914Z,27.10
2018-07-24T20:35:24.696Z,27.00
2018-07-24T20:37:52.270Z,27.10
2018-07-24T20:40:19.949Z,27.00
2018-07-24T20:42:47.598Z,27.00
2018-07-24T20:45:15.283Z,26.90
2018-07-24T20:47:42.979Z,26.80
2018-07-24T20:50:23.029Z,26.80
2018-07-24T20:52:50.684Z,26.80
2018-07-24T20:55:18.330Z,26.70
2018-07-24T20:57:45.970Z,26.70
2018-07-24T21:00:13.592Z,26.70
2018-07-24T21:02:41.261Z,26.70
2018-07-24T21:05:08.914Z,26.70
2018-07-24T21:07:36.524Z,26.70
2018-07-24T21:10:09.090Z,26.80
2018-07-24T21:12:36.759Z,26.80
2018-07-24T21:15:04.689Z,27.20
2018-07-24T21:17:32.283Z,27.30
2018-07-24T21:19:59.974Z,27.30
2018-07-24T21:22:27.637Z,27.30
2018-07-24T21:24:55.301Z,27.30
2018-07-24T21:27:23.001Z,27.30
2018-07-24T21:29:50.617Z,27.20
2018-07-24T21:32:18.274Z,27.00
2018-07-24T21:34:45.960Z,26.90
2018-07-24T21:37:13.576Z,26.80
2018-07-24T21:39:41.298Z,26.70
2018-07-24T21:42:08.988Z,26.60
2018-07-24T21:44:36.628Z,26.50
2018-07-24T21:47:04.308Z,26.40
2018-07-24T21:49:31.985Z,26.30
2018-07-24T21:51:59.653Z,26.30
2018-07-24T21:54:27.288Z,26.20
2018-07-24T21:59:22.436Z,26.00
2018-07-24T22:01:50.104Z,26.00
2018-07-24T22:04:17.729Z,25.90
2018-07-24T22:06:45.351Z,25.80
2018-07-24T22:09:13.006Z,25.80
2018-07-24T22:11:40.667Z,25.80
2018-07-24T22:14:08.323Z,25.70
2018-07-24T22:16:35.936Z,25.60
2018-07-24T22:19:03.571Z,25.60
2018-07-24T22:21:31.204Z,25.50
2018-07-24T22:23:58.805Z,25.40
2018-07-24T22:28:54.031Z,25.40
2018-07-24T22:31:21.632Z,25.30
2018-07-24T22:33:49.285Z,25.30
2018-07-24T22:36:16.928Z,25.30
2018-07-24T22:38:44.583Z,25.20
2018-07-24T22:41:12.230Z,25.20
2018-07-24T22:43:39.852Z,25.20
2018-07-24T22:46:07.501Z,25.10
2018-07-24T22:48:35.128Z,25.10
2018-07-24T22:51:02.767Z,25.10
2018-07-24T22:53:30.386Z,25.10
2018-07-24T22:55:58.034Z,25.00
2018-07-24T22:58:25.693Z,24.90
2018-07-24T23:00:53.342Z,24.90
2018-07-24T23:03:20.985Z,24.80
2018-07-24T23:05:48.619Z,24.70
2018-07-24T23:08:16.297Z,24.70
2018-07-24T23:10:43.927Z,24.70
2018-07-24T23:13:11.554Z,24.60
2018-07-24T23:15:39.154Z,24.60
2018-07-24T23:18:06.845Z,24.50
2018-07-24T23:20:34.494Z,24.40
2018-07-24T23:25:29.739Z,24.30
2018-07-24T23:27:57.372Z,24.30
2018-07-24T23:30:25.017Z,24.30
2018-07-24T23:32:52.650Z,24.30
2018-07-24T23:35:20.312Z,24.20
2018-07-24T23:37:48.058Z,24.20
2018-07-24T23:40:15.711Z,24.10
2018-07-24T23:42:43.371Z,24.10
2018-07-24T23:45:11.089Z,24.00
2018-07-24T23:47:38.701Z,24.00
2018-07-24T23:50:06.386Z,23.90
2018-07-24T23:52:34.231Z,23.90
2018-07-24T23:55:02.118Z,23.90
2018-07-24T23:57:30.009Z,23.80
2018-07-24T23:59:57.958Z,23.80
